createdAt,value
2022-12-31T00:17:39.528Z,-0.36
2022-12-31T00:27:39.634Z,-0.41
2022-12-31T00:37:39.579Z,-0.47
2022-12-31T00:47:39.560Z,-0.38
2022-12-31T00:57:39.579Z,-0.33
2022-12-31T01:07:39.550Z,-0.21
2022-12-31T01:17:39.612Z,-0.35
2022-12-31T01:27:39.600Z,-0.39
2022-12-31T01:37:39.597Z,-0.35
2022-12-31T01:47:39.615Z,-0.36
2022-12-31T01:57:39.600Z,-0.41
2022-12-31T02:07:39.831Z,-0.39
2022-12-31T02:17:39.644Z,-0.41
2022-12-31T02:27:39.598Z,-0.39
2022-12-31T02:37:39.631Z,-0.37
2022-12-31T02:47:39.621Z,-0.3
2022-12-31T02:57:39.646Z,0.05
2022-12-31T03:07:39.615Z,-0.06
2022-12-31T03:17:39.667Z,-0.18
2022-12-31T03:27:39.659Z,-0.07
2022-12-31T03:37:39.681Z,-0.08
2022-12-31T03:47:39.655Z,-0.19
2022-12-31T03:57:39.681Z,-0.1
2022-12-31T04:07:39.668Z,-0.05
2022-12-31T04:17:39.726Z,0.07
2022-12-31T04:27:39.725Z,0.17
2022-12-31T04:37:39.723Z,0.21
2022-12-31T04:47:39.703Z,0.32
2022-12-31T04:57:39.723Z,0.43
2022-12-31T05:07:39.731Z,0.65
2022-12-31T05:17:39.776Z,0.64
2022-12-31T05:27:39.729Z,0.95
2022-12-31T05:37:39.784Z,1.02
2022-12-31T05:47:39.743Z,0.91
2022-12-31T05:57:39.756Z,0.7
2022-12-31T06:07:39.780Z,0.55
2022-12-31T06:17:39.768Z,0.53
2022-12-31T06:27:39.781Z,0.4
2022-12-31T06:37:39.773Z,0.53
2022-12-31T06:47:39.754Z,0.47
2022-12-31T06:57:39.801Z,0.36
2022-12-31T07:07:39.789Z,0.31
2022-12-31T07:17:39.820Z,0.4
2022-12-31T07:27:39.774Z,0.33
2022-12-31T07:37:39.831Z,0.41
2022-12-31T07:47:39.802Z,0.64
2022-12-31T07:57:39.852Z,0.84
2022-12-31T08:07:39.818Z,1.02
2022-12-31T08:17:39.868Z,1.3
2022-12-31T08:27:39.819Z,1.56
2022-12-31T08:37:39.845Z,2.24
2022-12-31T08:47:39.839Z,3.04
2022-12-31T08:57:39.863Z,3.44
2022-12-31T09:07:39.831Z,3.9
2022-12-31T09:17:39.830Z,4.56
2022-12-31T09:27:39.836Z,5.11
2022-12-31T09:37:39.872Z,6.38
2022-12-31T09:47:39.992Z,7.98
2022-12-31T09:57:39.829Z,8.59
2022-12-31T10:07:39.822Z,8.93
2022-12-31T10:17:39.860Z,9.63
2022-12-31T10:27:39.796Z,10.26
2022-12-31T10:37:39.830Z,9.53
2022-12-31T10:47:39.786Z,10.42
2022-12-31T10:57:39.840Z,9.82
2022-12-31T11:07:39.788Z,9.85
2022-12-31T11:17:39.803Z,9.25
2022-12-31T11:27:39.882Z,8.8
2022-12-31T11:37:39.854Z,8.63
2022-12-31T11:47:56.448Z,8.5
2022-12-31T11:57:39.827Z,8.34
2022-12-31T12:07:39.821Z,8.2
2022-12-31T12:17:39.809Z,8.41
2022-12-31T12:27:39.784Z,8.47
2022-12-31T12:37:39.824Z,8.63
2022-12-31T12:47:39.786Z,8.77
2022-12-31T12:57:39.783Z,8.92
2022-12-31T13:07:39.791Z,9.05
2022-12-31T13:17:39.798Z,9.01
2022-12-31T13:27:39.802Z,8.95
2022-12-31T13:37:39.785Z,8.98
2022-12-31T13:47:39.754Z,8.97
2022-12-31T13:57:39.902Z,8.91
2022-12-31T14:07:45.488Z,8.6
2022-12-31T14:17:39.788Z,8.26
2022-12-31T14:27:39.766Z,7.84
2022-12-31T14:37:39.777Z,7.53
2022-12-31T14:47:39.762Z,6.99
2022-12-31T14:58:01.927Z,6.61
2022-12-31T15:07:39.751Z,6.14
2022-12-31T15:17:39.795Z,5.71
2022-12-31T15:27:39.769Z,5.38
2022-12-31T15:37:39.795Z,4.91
2022-12-31T15:47:39.753Z,4.85
2022-12-31T15:57:39.808Z,4.34
2022-12-31T16:07:39.788Z,4.14
2022-12-31T16:17:39.845Z,3.8
2022-12-31T16:27:39.779Z,3.63
2022-12-31T16:37:39.821Z,3.47
2022-12-31T16:47:39.772Z,3.3
2022-12-31T16:57:39.812Z,3.25
2022-12-31T17:07:39.763Z,3
2022-12-31T17:17:39.826Z,2.9
2022-12-31T17:27:39.787Z,2.88
2022-12-31T17:37:39.819Z,2.85
2022-12-31T17:47:39.829Z,2.73
2022-12-31T17:57:39.835Z,2.63
2022-12-31T18:07:39.786Z,2.6
2022-12-31T18:17:39.837Z,2.56
2022-12-31T18:27:39.833Z,2.41
2022-12-31T18:37:39.826Z,2.27
2022-12-31T18:47:39.808Z,2.25
2022-12-31T18:57:39.856Z,2.26
2022-12-31T19:07:39.829Z,2.41
2022-12-31T19:17:39.826Z,2.51
2022-12-31T19:27:39.834Z,2.42
2022-12-31T19:37:39.916Z,2.37
2022-12-31T19:47:39.842Z,2.28
2022-12-31T19:57:39.862Z,2.22
2022-12-31T20:07:39.864Z,2.67
2022-12-31T20:17:39.872Z,2.67
2022-12-31T20:27:39.875Z,2.42
2022-12-31T20:37:39.873Z,2.15
2022-12-31T20:47:39.870Z,1.97
2022-12-31T20:57:39.908Z,1.76
2022-12-31T21:07:39.910Z,1.55
2022-12-31T21:17:39.903Z,1.4
2022-12-31T21:27:39.900Z,1.54
2022-12-31T21:37:57.270Z,1.58
2022-12-31T21:47:47.053Z,1.35
2022-12-31T21:57:59.448Z,1.63
2022-12-31T22:07:39.910Z,2.01
2022-12-31T22:17:39.917Z,1.94
2022-12-31T22:27:39.893Z,1.77
2022-12-31T22:37:56.657Z,1.71
2022-12-31T22:47:39.917Z,1.55
2022-12-31T22:57:39.960Z,1.42
2022-12-31T23:07:39.929Z,1.25
2022-12-31T23:17:39.970Z,1.06
2022-12-31T23:27:39.952Z,0.92
2022-12-31T23:37:39.962Z,0.92
2022-12-31T23:47:39.939Z,0.78
2022-12-31T23:57:39.998Z,0.71
